Frio Chikuma — 3FWG8 — position and weather

sailwx.info

Track history (hours):
 
Tides and Currents Weather Stations Pressure Air Temp Water Temp Dewpoint Dewpoint Depression Visibility Wind Speed Wind Dir Waves Ship Positions

Frio Chikuma

Last reported at 2016-Jun-28 18:33 UTC. Time now 2016-Jun-28 18:56 UTC.
Position N 28°05' W 015°23'.

Length 135 m; draft 5.2 m.

Type: Cargo ship. MMSI: 353306000.

Date/timePositionNaut miles runAvg speedWind from/ knotsBaromVisibWave heightAir tempDewpointWater temp
2016-Jun-28 18:33N 28°05' W 015°23'0 0.1
2016-Jun-28 17:33N 28°05' W 015°23'3 2.9
2016-Jun-28 16:33N 28°03' W 015°21'1413.8
2016-Jun-28 15:34N 27°50' W 015°19'7 7.1
2016-Jun-28 14:34N 27°57' W 015°20'1616.5
2016-Jun-28 13:34N 28°13' W 015°18'6 6.3
2016-Jun-28 12:33N 28°19' W 015°18'10 9.8
2016-Jun-28 11:33N 28°29' W 015°19'7 6.9
2016-Jun-28 10:33N 28°22' W 015°20'1010.1
2016-Jun-28 09:33N 28°12' W 015°22'5 4.7
2016-Jun-28 08:33N 28°08' W 015°25'0 0.4
2016-Jun-28 07:31N 28°09' W 015°25'0 0.0
2016-Jun-28 06:31N 28°09' W 015°25'0 0.0
2016-Jun-28 04:31N 28°09' W 015°25'0 0.0
2016-Jun-28 03:31N 28°09' W 015°25'0 0.0
2016-Jun-28 02:31N 28°09' W 015°25'0 0.0
2016-Jun-28 01:31N 28°09' W 015°25'0 0.0
2016-Jun-28 00:31N 28°09' W 015°25'0 0.0
2016-Jun-27 23:31N 28°09' W 015°25'0 0.0
2016-Jun-27 22:31N 28°09' W 015°25'0 0.0
2016-Jun-27 21:31N 28°09' W 015°25'0 0.0
2016-Jun-27 20:31N 28°09' W 015°25'0 0.0
2016-Jun-27 19:31N 28°09' W 015°25'0 0.0
2016-Jun-27 18:31N 28°09' W 015°25'0 0.0
2016-Jun-27 17:31N 28°09' W 015°25'0 0.0
2016-Jun-27 16:31N 28°09' W 015°25'0 0.0
2016-Jun-27 15:31N 28°09' W 015°25'0 0.0
2016-Jun-27 14:31N 28°09' W 015°25'0 0.0
2016-Jun-27 13:31N 28°09' W 015°25'0 0.0
2016-Jun-27 12:31N 28°09' W 015°25'0 0.0
2016-Jun-27 11:31N 28°09' W 015°25'0 0.0
2016-Jun-27 10:31N 28°09' W 015°25'0 0.0
2016-Jun-27 09:31N 28°09' W 015°25'0 0.0
2016-Jun-27 08:31N 28°09' W 015°25'0 0.0
2016-Jun-27 07:31N 28°09' W 015°25'0 0.0
2016-Jun-27 06:31N 28°09' W 015°25'0 0.0
2016-Jun-27 05:31N 28°09' W 015°25'0 0.0
2016-Jun-27 04:28N 28°09' W 015°25'0 0.0
2016-Jun-27 03:31N 28°09' W 015°25'0 0.0
2016-Jun-27 02:31N 28°09' W 015°25'0 0.0
2016-Jun-27 01:32N 28°09' W 015°25'0 0.0
2016-Jun-27 00:32N 28°09' W 015°25'0 0.0
2016-Jun-26 23:32N 28°09' W 015°25'0 0.0
2016-Jun-26 22:32N 28°09' W 015°25'0 0.0
2016-Jun-26 21:32N 28°09' W 015°25'0 0.0
2016-Jun-26 20:32N 28°09' W 015°25'0 0.0
2016-Jun-26 19:32N 28°09' W 015°25'0 0.0
2016-Jun-26 18:32N 28°09' W 015°25'0 0.0
2016-Jun-26 17:32N 28°09' W 015°25'0 0.0
2016-Jun-26 16:32N 28°09' W 015°25'0 0.0
2016-Jun-26 15:32N 28°09' W 015°25'0 0.0
2016-Jun-26 14:32N 28°09' W 015°25'0 0.0
2016-Jun-26 13:32N 28°09' W 015°25'0 0.0
2016-Jun-26 12:32N 28°09' W 015°25'0 0.0
2016-Jun-26 11:32N 28°09' W 015°25'0 0.0
2016-Jun-26 10:32N 28°09' W 015°25'0 0.0
2016-Jun-26 09:32N 28°09' W 015°25'0 0.0
2016-Jun-26 08:32N 28°09' W 015°25'0 0.0
2016-Jun-26 07:32N 28°09' W 015°25'0 0.0
2016-Jun-26 06:32N 28°09' W 015°25'0 0.0
2016-Jun-26 05:32N 28°09' W 015°25'0 0.0
2016-Jun-26 04:32N 28°09' W 015°25'0 0.0
2016-Jun-26 03:32N 28°09' W 015°25'0 0.0
2016-Jun-26 02:32N 28°09' W 015°25'0 0.0
2016-Jun-26 01:32N 28°09' W 015°25'0 0.0
2016-Jun-26 00:32N 28°09' W 015°25'0 0.0
2016-Jun-25 23:29N 28°09' W 015°25'0 0.0
2016-Jun-25 22:32N 28°09' W 015°25'0 0.0
2016-Jun-25 21:32N 28°09' W 015°25'0 0.0
2016-Jun-25 20:29N 28°09' W 015°25'0 0.0
2016-Jun-25 19:32N 28°09' W 015°25'0 0.0
2016-Jun-25 18:32N 28°09' W 015°25'0 0.0
2016-Jun-25 17:32N 28°09' W 015°25'0 0.0
2016-Jun-25 16:32N 28°09' W 015°25'0 0.0
2016-Jun-25 15:32N 28°09' W 015°25'0 0.0
2016-Jun-25 14:32N 28°09' W 015°25'0 0.0
2016-Jun-25 13:32N 28°09' W 015°25'0 0.0
2016-Jun-25 12:32N 28°09' W 015°25'0 0.0
2016-Jun-25 11:32N 28°09' W 015°25'0 0.0
2016-Jun-25 10:32N 28°09' W 015°25'0 0.0
2016-Jun-25 09:32N 28°09' W 015°25'0 0.0
2016-Jun-25 08:32N 28°09' W 015°25'0 0.0
2016-Jun-25 07:32N 28°09' W 015°25'0 0.0
2016-Jun-25 06:32N 28°09' W 015°25'0 0.0
2016-Jun-25 05:32N 28°09' W 015°25'0 0.0
2016-Jun-25 04:32N 28°09' W 015°25'0 0.0
2016-Jun-25 03:32N 28°09' W 015°25'0 0.0
2016-Jun-25 02:32N 28°09' W 015°25'0 0.0
2016-Jun-25 01:32N 28°09' W 015°25'0 0.0
2016-Jun-25 00:32N 28°09' W 015°25'0 0.0
2016-Jun-24 23:32N 28°09' W 015°25'0 0.0
2016-Jun-24 22:32N 28°09' W 015°25'0 0.0
2016-Jun-24 21:32N 28°09' W 015°25'0 0.0
2016-Jun-24 20:32N 28°09' W 015°25'0 0.0
2016-Jun-24 19:32N 28°09' W 015°25'0 0.0
2016-Jun-24 18:32N 28°09' W 015°25'0 0.0
2016-Jun-24 17:32N 28°09' W 015°25'0 0.0
2016-Jun-24 16:32N 28°09' W 015°25'0 0.0
2016-Jun-24 15:32N 28°09' W 015°25'0 0.0
2016-Jun-24 14:32N 28°09' W 015°25'0 0.0
2016-Jun-24 13:32N 28°09' W 015°25'0 0.0
2016-Jun-24 12:32N 28°09' W 015°25'0 0.0
2016-Jun-24 11:32N 28°09' W 015°25'0 0.0
2016-Jun-24 10:32N 28°09' W 015°25'0 0.0
2016-Jun-24 09:32N 28°09' W 015°25'0 0.0
2016-Jun-24 08:32N 28°09' W 015°25'0 0.0
2016-Jun-24 07:32N 28°09' W 015°25'0 0.0
2016-Jun-24 04:32N 28°09' W 015°25'0 0.0
2016-Jun-24 03:32N 28°09' W 015°25'0 0.0
2016-Jun-24 02:32N 28°09' W 015°25'0 0.0
2016-Jun-24 01:32N 28°09' W 015°25'0 0.0
2016-Jun-24 00:32N 28°09' W 015°25'0 0.0
2016-Jun-23 23:32N 28°09' W 015°25'0 0.0
2016-Jun-23 22:32N 28°09' W 015°25'0 0.0
2016-Jun-23 21:32N 28°09' W 015°25'0 0.0
2016-Jun-23 20:29N 28°09' W 015°25'0 0.0
2016-Jun-23 19:32N 28°09' W 015°25'0 0.0
2016-Jun-23 18:32N 28°09' W 015°25'0 0.0
2016-Jun-23 17:32N 28°09' W 015°25'0 0.0
2016-Jun-23 16:32N 28°09' W 015°25'0 0.0
2016-Jun-23 15:32N 28°09' W 015°25'0 0.0
2016-Jun-23 14:32N 28°09' W 015°25'0 0.0
2016-Jun-23 13:32N 28°09' W 015°25'0 0.0
2016-Jun-23 12:32N 28°09' W 015°25'0 0.0
2016-Jun-23 11:32N 28°09' W 015°25'0 0.0
2016-Jun-23 10:32N 28°09' W 015°25'0 0.0
2016-Jun-23 09:32N 28°09' W 015°25'0 0.0
2016-Jun-23 08:32N 28°09' W 015°25'0 0.0
2016-Jun-23 07:32N 28°09' W 015°25'0 0.0
2016-Jun-23 05:32N 28°09' W 015°25'0 0.0
2016-Jun-23 04:32N 28°09' W 015°25'0 0.0
2016-Jun-23 03:32N 28°09' W 015°25'0 0.0
2016-Jun-23 02:32N 28°09' W 015°25'0 0.0
2016-Jun-23 01:32N 28°09' W 015°25'0 0.0
2016-Jun-23 00:32N 28°09' W 015°25'0 0.0
2016-Jun-22 23:32N 28°09' W 015°25'0 0.0
2016-Jun-22 22:32N 28°09' W 015°25'0 0.0
2016-Jun-22 21:32N 28°09' W 015°25'0 0.0
2016-Jun-22 20:32N 28°09' W 015°25'0 0.0
2016-Jun-22 19:32N 28°09' W 015°25'0 0.0
2016-Jun-22 18:32N 28°09' W 015°25'0 0.0
2016-Jun-22 17:32N 28°09' W 015°25'0 0.0
2016-Jun-22 16:26N 28°09' W 015°25'0 0.0
2016-Jun-22 15:26N 28°09' W 015°25'0 0.0
2016-Jun-22 14:11N 28°09' W 015°25'0 0.0
2016-Jun-22 13:29N 28°09' W 015°25'0 0.0
2016-Jun-22 12:29N 28°09' W 015°25'0 0.0
2016-Jun-22 11:29N 28°09' W 015°25'0 0.0
2016-Jun-22 10:32N 28°09' W 015°25'0 0.0
2016-Jun-22 09:32N 28°09' W 015°25'0 0.0
2016-Jun-22 08:32N 28°09' W 015°25'0 0.0
2016-Jun-22 07:32N 28°09' W 015°25'0 0.0
2016-Jun-22 06:32N 28°09' W 015°25'0 0.0
2016-Jun-22 05:32N 28°09' W 015°25'0 0.0
2016-Jun-22 04:32N 28°09' W 015°25'0 0.0
2016-Jun-22 03:23N 28°09' W 015°25'0 0.0
2016-Jun-22 02:26N 28°09' W 015°25'0 0.0
2016-Jun-22 01:26N 28°09' W 015°25'0 0.0
2016-Jun-22 00:26N 28°09' W 015°25'0 0.0
2016-Jun-21 23:29N 28°09' W 015°25'0 0.0
2016-Jun-21 22:29N 28°09' W 015°25'0 0.0
2016-Jun-21 21:29N 28°09' W 015°25'0 0.0
2016-Jun-21 20:29N 28°09' W 015°25'0 0.0
2016-Jun-21 19:32N 28°09' W 015°25'0 0.0
2016-Jun-21 18:32N 28°09' W 015°25'0 0.0
2016-Jun-21 17:32N 28°09' W 015°25'0 0.0
2016-Jun-21 16:32N 28°09' W 015°25'0 0.0
2016-Jun-21 15:32N 28°09' W 015°25'0 0.0
2016-Jun-21 14:32N 28°09' W 015°25'0 0.0
2016-Jun-21 13:23N 28°09' W 015°25'0 0.0
2016-Jun-21 12:23N 28°09' W 015°25'0 0.0
2016-Jun-21 11:23N 28°09' W 015°25'0 0.0
2016-Jun-21 10:26N 28°09' W 015°25'0 0.0
2016-Jun-21 09:29N 28°09' W 015°25'0 0.0
2016-Jun-21 08:29N 28°09' W 015°25'0 0.0
2016-Jun-21 07:29N 28°09' W 015°25'0 0.0
2016-Jun-21 06:32N 28°09' W 015°25'0 0.0
2016-Jun-21 04:32N 28°09' W 015°25'0 0.0
2016-Jun-21 03:32N 28°09' W 015°25'0 0.0
2016-Jun-21 02:32N 28°09' W 015°25'0 0.0
2016-Jun-21 01:32N 28°09' W 015°25'0 0.0
2016-Jun-21 00:32N 28°09' W 015°25'0 0.0
2016-Jun-20 23:23N 28°09' W 015°25'0 0.0
2016-Jun-20 22:23N 28°09' W 015°25'0 0.0
2016-Jun-20 21:26N 28°09' W 015°25'0 0.0
2016-Jun-20 20:26N 28°09' W 015°25'0 0.0
2016-Jun-20 19:29N 28°09' W 015°25'0 0.0
2016-Jun-20 18:29N 28°09' W 015°25'0 0.0
2016-Jun-20 17:29N 28°09' W 015°25'0 0.0
2016-Jun-20 16:32N 28°09' W 015°25'0 0.0
2016-Jun-20 15:32N 28°09' W 015°25'0 0.0
2016-Jun-20 14:32N 28°09' W 015°25'0 0.0
2016-Jun-20 13:32N 28°09' W 015°25'0 0.0
2016-Jun-20 12:32N 28°09' W 015°25'0 0.0
2016-Jun-20 11:32N 28°09' W 015°25'0 0.0
2016-Jun-20 10:32N 28°09' W 015°25'0 0.0
2016-Jun-20 09:23N 28°09' W 015°25'0 0.0
2016-Jun-20 08:23N 28°09' W 015°25'0 0.0
2016-Jun-20 07:26N 28°09' W 015°25'0 0.0
2016-Jun-20 06:26N 28°09' W 015°25'0 0.0
2016-Jun-20 05:26N 28°09' W 015°25'0 0.0
2016-Jun-20 04:29N 28°09' W 015°25'0 0.0
2016-Jun-20 03:29N 28°09' W 015°25'0 0.0
2016-Jun-20 02:32N 28°09' W 015°25'0 0.0
2016-Jun-20 01:32N 28°09' W 015°25'0 0.0
2016-Jun-20 00:32N 28°09' W 015°25'0 0.0
2016-Jun-19 23:32N 28°09' W 015°25'0 0.0
2016-Jun-19 22:32N 28°09' W 015°25'0 0.0
2016-Jun-19 21:32N 28°09' W 015°25'0 0.0
2016-Jun-19 20:32N 28°09' W 015°25'0 0.0
2016-Jun-19 19:23N 28°09' W 015°25'0 0.0
2016-Jun-19 18:23N 28°09' W 015°25'0 0.0
2016-Jun-19 17:26N 28°09' W 015°25'0 0.0
2016-Jun-19 16:26N 28°09' W 015°25'0 0.0
2016-Jun-19 15:29N 28°09' W 015°25'0 0.0
2016-Jun-19 14:29N 28°09' W 015°25'0 0.0
2016-Jun-19 13:29N 28°09' W 015°25'0 0.0
2016-Jun-19 12:32N 28°09' W 015°25'0 0.0
2016-Jun-19 11:32N 28°09' W 015°25'0 0.0
2016-Jun-19 10:32N 28°09' W 015°25'0 0.0
2016-Jun-19 09:32N 28°09' W 015°25'0 0.0
2016-Jun-19 08:32N 28°09' W 015°25'0 0.0
2016-Jun-19 07:32N 28°09' W 015°25'0 0.0
2016-Jun-19 06:23N 28°09' W 015°25'0 0.0
2016-Jun-19 05:23N 28°09' W 015°25'0 0.0
2016-Jun-19 04:23N 28°09' W 015°25'0 0.0
2016-Jun-19 03:26N 28°09' W 015°25'0 0.0
2016-Jun-19 02:26N 28°09' W 015°25'0 0.0
2016-Jun-19 01:29N 28°09' W 015°25'0 0.0
2016-Jun-19 00:29N 28°09' W 015°25'0 0.0
2016-Jun-18 23:29N 28°09' W 015°25'0 0.0
2016-Jun-18 22:32N 28°09' W 015°25'0 0.0
2016-Jun-18 21:32N 28°09' W 015°25'0 0.0
2016-Jun-18 20:32N 28°09' W 015°25'0 0.0
2016-Jun-18 19:32N 28°09' W 015°25'  
Track history (hours):
 
Tides and Currents Weather Stations Pressure Air Temp Water Temp Dewpoint Dewpoint Depression Visibility Wind Speed Wind Dir Waves Ship Positions

Frio Chikuma

Last reported at 2016-Jun-28 18:33 UTC. Time now 2016-Jun-28 18:56 UTC.
Position N 28°05' W 015°23'.

Length 135 m; draft 5.2 m.

Type: Cargo ship. MMSI: 353306000.

Date/timePositionNaut miles runAvg speedWind from/ knotsBaromVisibWave heightAir tempDewpointWater temp
2016-Jun-28 18:33N 28°05' W 015°23'0 0.1
2016-Jun-28 17:33N 28°05' W 015°23'3 2.9
2016-Jun-28 16:33N 28°03' W 015°21'1413.8
2016-Jun-28 15:34N 27°50' W 015°19'7 7.1
2016-Jun-28 14:34N 27°57' W 015°20'1616.5
2016-Jun-28 13:34N 28°13' W 015°18'6 6.3
2016-Jun-28 12:33N 28°19' W 015°18'10 9.8
2016-Jun-28 11:33N 28°29' W 015°19'7 6.9
2016-Jun-28 10:33N 28°22' W 015°20'1010.1
2016-Jun-28 09:33N 28°12' W 015°22'5 4.7
2016-Jun-28 08:33N 28°08' W 015°25'0 0.4
2016-Jun-28 07:31N 28°09' W 015°25'0 0.0
2016-Jun-28 06:31N 28°09' W 015°25'0 0.0
2016-Jun-28 04:31N 28°09' W 015°25'0 0.0
2016-Jun-28 03:31N 28°09' W 015°25'0 0.0
2016-Jun-28 02:31N 28°09' W 015°25'0 0.0
2016-Jun-28 01:31N 28°09' W 015°25'0 0.0
2016-Jun-28 00:31N 28°09' W 015°25'0 0.0
2016-Jun-27 23:31N 28°09' W 015°25'0 0.0
2016-Jun-27 22:31N 28°09' W 015°25'0 0.0
2016-Jun-27 21:31N 28°09' W 015°25'0 0.0
2016-Jun-27 20:31N 28°09' W 015°25'0 0.0
2016-Jun-27 19:31N 28°09' W 015°25'0 0.0
2016-Jun-27 18:31N 28°09' W 015°25'0 0.0
2016-Jun-27 17:31N 28°09' W 015°25'0 0.0
2016-Jun-27 16:31N 28°09' W 015°25'0 0.0
2016-Jun-27 15:31N 28°09' W 015°25'0 0.0
2016-Jun-27 14:31N 28°09' W 015°25'0 0.0
2016-Jun-27 13:31N 28°09' W 015°25'0 0.0
2016-Jun-27 12:31N 28°09' W 015°25'0 0.0
2016-Jun-27 11:31N 28°09' W 015°25'0 0.0
2016-Jun-27 10:31N 28°09' W 015°25'0 0.0
2016-Jun-27 09:31N 28°09' W 015°25'0 0.0
2016-Jun-27 08:31N 28°09' W 015°25'0 0.0
2016-Jun-27 07:31N 28°09' W 015°25'0 0.0
2016-Jun-27 06:31N 28°09' W 015°25'0 0.0
2016-Jun-27 05:31N 28°09' W 015°25'0 0.0
2016-Jun-27 04:28N 28°09' W 015°25'0 0.0
2016-Jun-27 03:31N 28°09' W 015°25'0 0.0
2016-Jun-27 02:31N 28°09' W 015°25'0 0.0
2016-Jun-27 01:32N 28°09' W 015°25'0 0.0
2016-Jun-27 00:32N 28°09' W 015°25'0 0.0
2016-Jun-26 23:32N 28°09' W 015°25'0 0.0
2016-Jun-26 22:32N 28°09' W 015°25'0 0.0
2016-Jun-26 21:32N 28°09' W 015°25'0 0.0
2016-Jun-26 20:32N 28°09' W 015°25'0 0.0
2016-Jun-26 19:32N 28°09' W 015°25'0 0.0
2016-Jun-26 18:32N 28°09' W 015°25'0 0.0
2016-Jun-26 17:32N 28°09' W 015°25'0 0.0
2016-Jun-26 16:32N 28°09' W 015°25'0 0.0
2016-Jun-26 15:32N 28°09' W 015°25'0 0.0
2016-Jun-26 14:32N 28°09' W 015°25'0 0.0
2016-Jun-26 13:32N 28°09' W 015°25'0 0.0
2016-Jun-26 12:32N 28°09' W 015°25'0 0.0
2016-Jun-26 11:32N 28°09' W 015°25'0 0.0
2016-Jun-26 10:32N 28°09' W 015°25'0 0.0
2016-Jun-26 09:32N 28°09' W 015°25'0 0.0
2016-Jun-26 08:32N 28°09' W 015°25'0 0.0
2016-Jun-26 07:32N 28°09' W 015°25'0 0.0
2016-Jun-26 06:32N 28°09' W 015°25'0 0.0
2016-Jun-26 05:32N 28°09' W 015°25'0 0.0
2016-Jun-26 04:32N 28°09' W 015°25'0 0.0
2016-Jun-26 03:32N 28°09' W 015°25'0 0.0
2016-Jun-26 02:32N 28°09' W 015°25'0 0.0
2016-Jun-26 01:32N 28°09' W 015°25'0 0.0
2016-Jun-26 00:32N 28°09' W 015°25'0 0.0
2016-Jun-25 23:29N 28°09' W 015°25'0 0.0
2016-Jun-25 22:32N 28°09' W 015°25'0 0.0
2016-Jun-25 21:32N 28°09' W 015°25'0 0.0
2016-Jun-25 20:29N 28°09' W 015°25'0 0.0
2016-Jun-25 19:32N 28°09' W 015°25'0 0.0
2016-Jun-25 18:32N 28°09' W 015°25'0 0.0
2016-Jun-25 17:32N 28°09' W 015°25'0 0.0
2016-Jun-25 16:32N 28°09' W 015°25'0 0.0
2016-Jun-25 15:32N 28°09' W 015°25'0 0.0
2016-Jun-25 14:32N 28°09' W 015°25'0 0.0
2016-Jun-25 13:32N 28°09' W 015°25'0 0.0
2016-Jun-25 12:32N 28°09' W 015°25'0 0.0
2016-Jun-25 11:32N 28°09' W 015°25'0 0.0
2016-Jun-25 10:32N 28°09' W 015°25'0 0.0
2016-Jun-25 09:32N 28°09' W 015°25'0 0.0
2016-Jun-25 08:32N 28°09' W 015°25'0 0.0
2016-Jun-25 07:32N 28°09' W 015°25'0 0.0
2016-Jun-25 06:32N 28°09' W 015°25'0 0.0
2016-Jun-25 05:32N 28°09' W 015°25'0 0.0
2016-Jun-25 04:32N 28°09' W 015°25'0 0.0
2016-Jun-25 03:32N 28°09' W 015°25'0 0.0
2016-Jun-25 02:32N 28°09' W 015°25'0 0.0
2016-Jun-25 01:32N 28°09' W 015°25'0 0.0
2016-Jun-25 00:32N 28°09' W 015°25'0 0.0
2016-Jun-24 23:32N 28°09' W 015°25'0 0.0
2016-Jun-24 22:32N 28°09' W 015°25'0 0.0
2016-Jun-24 21:32N 28°09' W 015°25'0 0.0
2016-Jun-24 20:32N 28°09' W 015°25'0 0.0
2016-Jun-24 19:32N 28°09' W 015°25'0 0.0
2016-Jun-24 18:32N 28°09' W 015°25'0 0.0
2016-Jun-24 17:32N 28°09' W 015°25'0 0.0
2016-Jun-24 16:32N 28°09' W 015°25'0 0.0
2016-Jun-24 15:32N 28°09' W 015°25'0 0.0
2016-Jun-24 14:32N 28°09' W 015°25'0 0.0
2016-Jun-24 13:32N 28°09' W 015°25'0 0.0
2016-Jun-24 12:32N 28°09' W 015°25'0 0.0
2016-Jun-24 11:32N 28°09' W 015°25'0 0.0
2016-Jun-24 10:32N 28°09' W 015°25'0 0.0
2016-Jun-24 09:32N 28°09' W 015°25'0 0.0
2016-Jun-24 08:32N 28°09' W 015°25'0 0.0
2016-Jun-24 07:32N 28°09' W 015°25'0 0.0
2016-Jun-24 04:32N 28°09' W 015°25'0 0.0
2016-Jun-24 03:32N 28°09' W 015°25'0 0.0
2016-Jun-24 02:32N 28°09' W 015°25'0 0.0
2016-Jun-24 01:32N 28°09' W 015°25'0 0.0
2016-Jun-24 00:32N 28°09' W 015°25'0 0.0
2016-Jun-23 23:32N 28°09' W 015°25'0 0.0
2016-Jun-23 22:32N 28°09' W 015°25'0 0.0
2016-Jun-23 21:32N 28°09' W 015°25'0 0.0
2016-Jun-23 20:29N 28°09' W 015°25'0 0.0
2016-Jun-23 19:32N 28°09' W 015°25'0 0.0
2016-Jun-23 18:32N 28°09' W 015°25'0 0.0
2016-Jun-23 17:32N 28°09' W 015°25'0 0.0
2016-Jun-23 16:32N 28°09' W 015°25'0 0.0
2016-Jun-23 15:32N 28°09' W 015°25'0 0.0
2016-Jun-23 14:32N 28°09' W 015°25'0 0.0
2016-Jun-23 13:32N 28°09' W 015°25'0 0.0
2016-Jun-23 12:32N 28°09' W 015°25'0 0.0
2016-Jun-23 11:32N 28°09' W 015°25'0 0.0
2016-Jun-23 10:32N 28°09' W 015°25'0 0.0
2016-Jun-23 09:32N 28°09' W 015°25'0 0.0
2016-Jun-23 08:32N 28°09' W 015°25'0 0.0
2016-Jun-23 07:32N 28°09' W 015°25'0 0.0
2016-Jun-23 05:32N 28°09' W 015°25'0 0.0
2016-Jun-23 04:32N 28°09' W 015°25'0 0.0
2016-Jun-23 03:32N 28°09' W 015°25'0 0.0
2016-Jun-23 02:32N 28°09' W 015°25'0 0.0
2016-Jun-23 01:32N 28°09' W 015°25'0 0.0
2016-Jun-23 00:32N 28°09' W 015°25'0 0.0
2016-Jun-22 23:32N 28°09' W 015°25'0 0.0
2016-Jun-22 22:32N 28°09' W 015°25'0 0.0
2016-Jun-22 21:32N 28°09' W 015°25'0 0.0
2016-Jun-22 20:32N 28°09' W 015°25'0 0.0
2016-Jun-22 19:32N 28°09' W 015°25'0 0.0
2016-Jun-22 18:32N 28°09' W 015°25'0 0.0
2016-Jun-22 17:32N 28°09' W 015°25'0 0.0
2016-Jun-22 16:26N 28°09' W 015°25'0 0.0
2016-Jun-22 15:26N 28°09' W 015°25'0 0.0
2016-Jun-22 14:11N 28°09' W 015°25'0 0.0
2016-Jun-22 13:29N 28°09' W 015°25'0 0.0
2016-Jun-22 12:29N 28°09' W 015°25'0 0.0
2016-Jun-22 11:29N 28°09' W 015°25'0 0.0
2016-Jun-22 10:32N 28°09' W 015°25'0 0.0
2016-Jun-22 09:32N 28°09' W 015°25'0 0.0
2016-Jun-22 08:32N 28°09' W 015°25'0 0.0
2016-Jun-22 07:32N 28°09' W 015°25'0 0.0
2016-Jun-22 06:32N 28°09' W 015°25'0 0.0
2016-Jun-22 05:32N 28°09' W 015°25'0 0.0
2016-Jun-22 04:32N 28°09' W 015°25'0 0.0
2016-Jun-22 03:23N 28°09' W 015°25'0 0.0
2016-Jun-22 02:26N 28°09' W 015°25'0 0.0
2016-Jun-22 01:26N 28°09' W 015°25'0 0.0
2016-Jun-22 00:26N 28°09' W 015°25'0 0.0
2016-Jun-21 23:29N 28°09' W 015°25'0 0.0
2016-Jun-21 22:29N 28°09' W 015°25'0 0.0
2016-Jun-21 21:29N 28°09' W 015°25'0 0.0
2016-Jun-21 20:29N 28°09' W 015°25'0 0.0
2016-Jun-21 19:32N 28°09' W 015°25'0 0.0
2016-Jun-21 18:32N 28°09' W 015°25'0 0.0
2016-Jun-21 17:32N 28°09' W 015°25'0 0.0
2016-Jun-21 16:32N 28°09' W 015°25'0 0.0
2016-Jun-21 15:32N 28°09' W 015°25'0 0.0
2016-Jun-21 14:32N 28°09' W 015°25'0 0.0
2016-Jun-21 13:23N 28°09' W 015°25'0 0.0
2016-Jun-21 12:23N 28°09' W 015°25'0 0.0
2016-Jun-21 11:23N 28°09' W 015°25'0 0.0
2016-Jun-21 10:26N 28°09' W 015°25'0 0.0
2016-Jun-21 09:29N 28°09' W 015°25'0 0.0
2016-Jun-21 08:29N 28°09' W 015°25'0 0.0
2016-Jun-21 07:29N 28°09' W 015°25'0 0.0
2016-Jun-21 06:32N 28°09' W 015°25'0 0.0
2016-Jun-21 04:32N 28°09' W 015°25'0 0.0
2016-Jun-21 03:32N 28°09' W 015°25'0 0.0
2016-Jun-21 02:32N 28°09' W 015°25'0 0.0
2016-Jun-21 01:32N 28°09' W 015°25'0 0.0
2016-Jun-21 00:32N 28°09' W 015°25'0 0.0
2016-Jun-20 23:23N 28°09' W 015°25'0 0.0
2016-Jun-20 22:23N 28°09' W 015°25'0 0.0
2016-Jun-20 21:26N 28°09' W 015°25'0 0.0
2016-Jun-20 20:26N 28°09' W 015°25'0 0.0
2016-Jun-20 19:29N 28°09' W 015°25'0 0.0
2016-Jun-20 18:29N 28°09' W 015°25'0 0.0
2016-Jun-20 17:29N 28°09' W 015°25'0 0.0
2016-Jun-20 16:32N 28°09' W 015°25'0 0.0
2016-Jun-20 15:32N 28°09' W 015°25'0 0.0
2016-Jun-20 14:32N 28°09' W 015°25'0 0.0
2016-Jun-20 13:32N 28°09' W 015°25'0 0.0
2016-Jun-20 12:32N 28°09' W 015°25'0 0.0
2016-Jun-20 11:32N 28°09' W 015°25'0 0.0
2016-Jun-20 10:32N 28°09' W 015°25'0 0.0
2016-Jun-20 09:23N 28°09' W 015°25'0 0.0
2016-Jun-20 08:23N 28°09' W 015°25'0 0.0
2016-Jun-20 07:26N 28°09' W 015°25'0 0.0
2016-Jun-20 06:26N 28°09' W 015°25'0 0.0
2016-Jun-20 05:26N 28°09' W 015°25'0 0.0
2016-Jun-20 04:29N 28°09' W 015°25'0 0.0
2016-Jun-20 03:29N 28°09' W 015°25'0 0.0
2016-Jun-20 02:32N 28°09' W 015°25'0 0.0
2016-Jun-20 01:32N 28°09' W 015°25'0 0.0
2016-Jun-20 00:32N 28°09' W 015°25'0 0.0
2016-Jun-19 23:32N 28°09' W 015°25'0 0.0
2016-Jun-19 22:32N 28°09' W 015°25'0 0.0
2016-Jun-19 21:32N 28°09' W 015°25'0 0.0
2016-Jun-19 20:32N 28°09' W 015°25'0 0.0
2016-Jun-19 19:23N 28°09' W 015°25'0 0.0
2016-Jun-19 18:23N 28°09' W 015°25'0 0.0
2016-Jun-19 17:26N 28°09' W 015°25'0 0.0
2016-Jun-19 16:26N 28°09' W 015°25'0 0.0
2016-Jun-19 15:29N 28°09' W 015°25'0 0.0
2016-Jun-19 14:29N 28°09' W 015°25'0 0.0
2016-Jun-19 13:29N 28°09' W 015°25'0 0.0
2016-Jun-19 12:32N 28°09' W 015°25'0 0.0
2016-Jun-19 11:32N 28°09' W 015°25'0 0.0
2016-Jun-19 10:32N 28°09' W 015°25'0 0.0
2016-Jun-19 09:32N 28°09' W 015°25'0 0.0
2016-Jun-19 08:32N 28°09' W 015°25'0 0.0
2016-Jun-19 07:32N 28°09' W 015°25'0 0.0
2016-Jun-19 06:23N 28°09' W 015°25'0 0.0
2016-Jun-19 05:23N 28°09' W 015°25'0 0.0
2016-Jun-19 04:23N 28°09' W 015°25'0 0.0
2016-Jun-19 03:26N 28°09' W 015°25'0 0.0
2016-Jun-19 02:26N 28°09' W 015°25'0 0.0
2016-Jun-19 01:29N 28°09' W 015°25'0 0.0
2016-Jun-19 00:29N 28°09' W 015°25'0 0.0
2016-Jun-18 23:29N 28°09' W 015°25'0 0.0
2016-Jun-18 22:32N 28°09' W 015°25'0 0.0
2016-Jun-18 21:32N 28°09' W 015°25'0 0.0
2016-Jun-18 20:32N 28°09' W 015°25'0 0.0
2016-Jun-18 19:32N 28°09' W 015°25'  

Dump ship's entire track history